Time;durP1;ratioP1;P1;durP2;ratioP2;P2;SDS_P1;SDS_P2;PMS_P1;PMS_P2;Temp;Humidity;BMP_temperature;BMP_pressure;BME280_temperature;BME280_humidity;BME280_pressure;Samples;Min_cycle;Max_cycle;Signal;HPM_P1;HPM_P2
2022/02/25 00:00:36;;;;;;;1.23;1.10;;;;;;;-145.69;100.00;73056.31;5072323;28;20198;-76
2022/02/25 00:03:03;;;;;;;1.00;1.00;;;;;;;-145.69;100.00;73058.31;5065549;28;20295;-76
2022/02/25 00:05:30;;;;;;;1.63;1.10;;;;;;;-145.69;100.00;73066.25;5069499;28;20207;-76
2022/02/25 00:07:56;;;;;;;1.17;1.03;;;;;;;-145.69;100.00;73082.19;5072074;28;20231;-76
2022/02/25 00:10:24;;;;;;;1.90;1.00;;;;;;;-145.69;100.00;73070.25;5072968;28;20195;-75
2022/02/25 00:12:50;;;;;;;2.17;1.00;;;;;;;-145.69;100.00;73084.19;5075900;28;20199;-76
2022/02/25 00:15:18;;;;;;;1.30;1.20;;;;;;;-145.69;100.00;73094.13;5066990;28;20249;-76
2022/02/25 00:17:45;;;;;;;2.23;0.87;;;;;;;-145.69;100.00;73100.09;5055616;28;20651;-76
2022/02/25 00:20:12;;;;;;;5.57;1.07;;;;;;;-145.69;100.00;73106.09;5055633;28;20290;-76
2022/02/25 00:22:39;;;;;;;5.57;1.00;;;;;;;-145.69;100.00;73120.00;5055357;28;20203;-76
2022/02/25 00:25:06;;;;;;;1.53;1.00;;;;;;;-145.69;100.00;73122.00;5056527;28;20253;-76
2022/02/25 00:27:33;;;;;;;2.27;1.07;;;;;;;-145.69;100.00;73126.00;5075631;28;20206;-76
2022/02/25 00:29:59;;;;;;;1.17;1.07;;;;;;;-145.69;100.00;73127.97;5075291;28;20795;-76
2022/02/25 00:32:27;;;;;;;2.33;0.93;;;;;;;-145.69;100.00;73133.94;5075644;28;20199;-77
2022/02/25 00:34:53;;;;;;;1.93;0.93;;;;;;;-145.69;100.00;73141.91;5075809;28;20252;-76
2022/02/25 00:37:20;;;;;;;6.90;1.00;;;;;;;-145.69;100.00;73145.91;5075236;28;20592;-76
2022/02/25 00:39:46;;;;;;;3.30;0.60;;;;;;;-145.69;100.00;73151.88;5075457;28;20217;-76
2022/02/25 00:42:13;;;;;;;4.23;0.77;;;;;;;-145.69;100.00;73159.84;5075226;28;20205;-76
2022/02/25 00:44:39;;;;;;;2.30;0.97;;;;;;;-145.69;100.00;73159.84;5075250;28;20202;-77
2022/02/25 00:47:06;;;;;;;3.40;0.93;;;;;;;-145.69;100.00;73159.84;5075201;28;20221;-77
2022/02/25 00:49:34;;;;;;;5.03;0.70;;;;;;;-145.69;100.00;73161.81;5075092;28;20227;-77
2022/02/25 00:52:01;;;;;;;2.53;0.80;;;;;;;-145.69;100.00;73177.75;5075187;28;20491;-77
2022/02/25 00:54:27;;;;;;;2.00;0.77;;;;;;;-145.69;100.00;73185.72;5075157;28;20213;-77
2022/02/25 00:56:54;;;;;;;4.97;0.83;;;;;;;-145.69;100.00;73189.69;5074864;28;20199;-77
2022/02/25 00:59:20;;;;;;;6.07;0.83;;;;;;;-145.69;100.00;73193.66;5075102;28;20229;-77
2022/02/25 01:01:47;;;;;;;2.10;1.00;;;;;;;-145.69;100.00;73195.66;5075084;28;20582;-77
2022/02/25 01:04:14;;;;;;;0.93;0.60;;;;;;;-145.69;100.00;73205.63;5074331;28;20263;-77
2022/02/25 01:06:43;;;;;;;3.70;1.10;;;;;;;-145.69;100.00;73193.66;5074005;28;20206;-77
2022/02/25 01:09:11;;;;;;;2.60;0.77;;;;;;;-145.69;100.00;73213.56;5073603;28;20411;-77
2022/02/25 01:11:37;;;;;;;4.10;0.80;;;;;;;-145.69;100.00;73203.63;5074603;28;20203;-76
2022/02/25 01:14:04;;;;;;;1.10;0.80;;;;;;;-145.69;100.00;73213.56;5074656;28;20198;-77
2022/02/25 01:16:30;;;;;;;0.60;0.60;;;;;;;-145.69;100.00;73231.50;5074749;28;20206;-77
2022/02/25 01:18:56;;;;;;;7.00;1.00;;;;;;;-145.69;100.00;73241.44;5074835;28;20624;-77
2022/02/25 01:21:23;;;;;;;2.63;1.07;;;;;;;-145.69;100.00;73237.47;5073489;28;20676;-77
2022/02/25 01:23:51;;;;;;;0.70;0.70;;;;;;;-145.69;100.00;73249.41;5074272;28;20206;-76
2022/02/25 01:26:17;;;;;;;4.60;0.80;;;;;;;-145.69;100.00;73249.41;5074157;28;20531;-77
2022/02/25 01:28:44;;;;;;;2.97;0.97;;;;;;;-145.69;100.00;73257.38;5074358;28;20226;-77
2022/02/25 01:31:10;;;;;;;1.70;0.90;;;;;;;-145.69;100.00;73265.34;5074352;28;20210;-77
2022/02/25 01:33:36;;;;;;;4.17;0.93;;;;;;;-145.69;100.00;73269.31;5074015;28;20199;-77
2022/02/25 01:36:03;;;;;;;5.90;1.00;;;;;;;-145.69;100.00;73293.22;5074043;28;20207;-77
2022/02/25 01:38:30;;;;;;;4.60;1.20;;;;;;;-145.69;100.00;73301.19;5073794;28;20195;-77
2022/02/25 01:40:59;;;;;;;2.10;0.83;;;;;;;-145.69;100.00;73305.16;5073925;28;20566;-76
2022/02/25 01:43:26;;;;;;;4.90;0.97;;;;;;;-145.69;100.00;73297.19;5073556;28;20662;-77
2022/02/25 01:45:53;;;;;;;1.40;1.00;;;;;;;-145.69;100.00;73305.16;5073844;28;20207;-76
2022/02/25 01:48:20;;;;;;;7.53;0.80;;;;;;;-145.69;100.00;73317.09;5072853;28;20199;-77
2022/02/25 01:50:47;;;;;;;4.13;0.90;;;;;;;-145.69;100.00;73323.06;5073584;28;20325;-76
2022/02/25 01:53:13;;;;;;;2.27;1.13;;;;;;;-145.69;100.00;73327.06;5073572;28;20658;-77
2022/02/25 01:55:43;;;;;;;2.73;1.03;;;;;;;-145.69;100.00;73325.06;5073614;28;20239;-77
2022/02/25 01:58:11;;;;;;;4.33;1.00;;;;;;;-145.69;100.00;73325.06;5073488;28;20203;-76
2022/02/25 02:00:37;;;;;;;4.87;1.20;;;;;;;-145.69;100.00;73331.03;5073410;28;20700;-77
2022/02/25 02:03:05;;;;;;;1.40;1.00;;;;;;;-145.69;100.00;73339.00;5073035;28;20700;-77
2022/02/25 02:05:32;;;;;;;3.90;1.00;;;;;;;-145.69;100.00;73341.00;5073483;28;20195;-77
2022/02/25 02:07:59;;;;;;;2.87;1.03;;;;;;;-145.69;100.00;73356.91;5073211;28;20326;-77
2022/02/25 02:10:25;;;;;;;4.23;0.90;;;;;;;-145.69;100.00;73356.91;5073479;28;20238;-77
2022/02/25 02:12:52;;;;;;;2.83;0.93;;;;;;;-145.69;100.00;73344.97;5073556;28;20207;-77
2022/02/25 02:15:20;;;;;;;4.17;1.23;;;;;;;-145.69;100.00;73344.97;5073556;28;20214;-76
2022/02/25 02:17:46;;;;;;;3.53;1.23;;;;;;;-145.69;100.00;73352.94;5073208;28;20202;-76
2022/02/25 02:20:13;;;;;;;1.83;1.00;;;;;;;-145.69;100.00;73350.94;5073111;28;20203;-76
2022/02/25 02:22:40;;;;;;;3.17;0.97;;;;;;;-145.69;100.00;73344.97;5073371;28;20206;-77
2022/02/25 02:25:08;;;;;;;5.70;0.97;;;;;;;-145.69;100.00;73364.88;5073144;28;20202;-77
2022/02/25 02:30:21;;;;;;;6.07;1.20;;;;;;;-145.69;100.00;73370.84;5073005;28;20573;-76
2022/02/25 02:32:48;;;;;;;6.03;1.23;;;;;;;-145.69;100.00;73368.88;5072645;28;20657;-76
2022/02/25 02:35:14;;;;;;;7.93;1.10;;;;;;;-145.69;100.00;73388.78;5073158;28;20611;-76
2022/02/25 02:37:43;;;;;;;2.83;1.13;;;;;;;-145.69;100.00;73404.69;5072753;28;20285;-76
2022/02/25 02:40:10;;;;;;;6.50;1.13;;;;;;;-145.69;100.00;73408.69;5072992;28;20605;-77
2022/02/25 02:42:37;;;;;;;5.20;1.53;;;;;;;-145.69;100.00;73428.59;5072936;28;20203;-77
2022/02/25 02:45:04;;;;;;;11.00;1.47;;;;;;;-145.69;100.00;73436.56;5072885;28;20203;-76
2022/02/25 02:47:30;;;;;;;5.93;1.10;;;;;;;-145.69;100.00;73432.56;5072744;28;20681;-76
2022/02/25 02:49:57;;;;;;;8.40;1.30;;;;;;;-145.69;100.00;73450.50;5072910;28;20226;-76
2022/02/25 02:52:24;;;;;;;10.50;1.60;;;;;;;-145.69;100.00;73450.50;5072421;28;20214;-76
2022/02/25 02:54:51;;;;;;;5.43;1.40;;;;;;;-145.69;100.00;73472.38;5072740;28;20194;-76
2022/02/25 02:57:20;;;;;;;4.63;1.03;;;;;;;-145.69;100.00;73496.28;5072745;28;20199;-77
2022/02/25 02:59:46;;;;;;;4.93;0.97;;;;;;;-145.69;100.00;73504.25;5072605;28;20206;-77
2022/02/25 03:02:13;;;;;;;7.10;1.20;;;;;;;-145.69;100.00;73512.22;5072892;28;20256;-76
2022/02/25 03:04:39;;;;;;;5.50;0.90;;;;;;;-145.69;100.00;73524.16;5072750;28;20672;-76
2022/02/25 03:07:06;;;;;;;5.40;1.30;;;;;;;-145.69;100.00;73516.19;5071849;28;20491;-76
2022/02/25 03:09:34;;;;;;;7.37;1.33;;;;;;;-145.69;100.00;73514.19;5072333;28;20775;-76
2022/02/25 03:12:02;;;;;;;3.73;1.27;;;;;;;-145.69;100.00;73520.16;5072618;28;20202;-76
2022/02/25 03:14:28;;;;;;;3.57;1.20;;;;;;;-145.69;100.00;73526.16;5072443;28;20202;-76
2022/02/25 03:16:55;;;;;;;3.93;1.00;;;;;;;-145.69;100.00;73524.16;5072746;28;20210;-77
2022/02/25 03:19:21;;;;;;;8.13;1.40;;;;;;;-145.69;100.00;73510.22;5072609;28;20207;-76
2022/02/25 03:21:48;;;;;;;9.10;1.40;;;;;;;-145.69;100.00;73500.25;5072622;28;20275;-76
2022/02/25 03:24:14;;;;;;;1.77;1.00;;;;;;;-145.69;100.00;73512.22;5072557;28;20224;-76
2022/02/25 03:26:40;;;;;;;4.37;1.23;;;;;;;-145.69;100.00;73528.13;5072403;28;20241;-76
2022/02/25 03:29:08;;;;;;;5.53;1.07;;;;;;;-145.69;100.00;73530.13;5072227;28;20248;-76
2022/02/25 03:31:35;;;;;;;9.47;1.27;;;;;;;-145.69;100.00;73522.16;5072400;28;20657;-76
2022/02/25 03:34:01;;;;;;;3.47;1.67;;;;;;;-145.69;100.00;73506.22;5072381;28;20202;-76
2022/02/25 03:36:27;;;;;;;6.00;1.33;;;;;;;-145.69;100.00;73488.31;5072364;28;20252;-76
2022/02/25 03:38:54;;;;;;;6.27;1.57;;;;;;;-145.69;100.00;73496.28;5072303;28;20199;-77
2022/02/25 03:41:20;;;;;;;2.43;1.40;;;;;;;-145.69;100.00;73516.19;5072202;28;20562;-77
2022/02/25 03:43:47;;;;;;;5.33;1.00;;;;;;;-145.69;100.00;73524.16;5072319;28;20199;-77
2022/02/25 03:46:14;;;;;;;1.63;0.90;;;;;;;-145.69;100.00;73534.09;5075139;28;20201;-77
2022/02/25 03:48:41;;;;;;;3.97;1.20;;;;;;;-145.69;100.00;73552.03;5076016;28;20213;-77
2022/02/25 03:51:07;;;;;;;5.60;1.40;;;;;;;-145.69;100.00;73575.91;5075971;28;20632;-76
2022/02/25 03:53:34;;;;;;;2.27;0.83;;;;;;;-145.69;100.00;73607.78;5075618;28;20225;-77
2022/02/25 03:56:00;;;;;;;4.33;1.20;;;;;;;-145.69;100.00;73631.66;5075826;28;20249;-76
2022/02/25 03:58:27;;;;;;;9.93;1.50;;;;;;;-145.69;100.00;73629.66;5075592;28;20199;-76
2022/02/25 04:00:54;;;;;;;2.00;1.10;;;;;;;-145.69;100.00;73635.66;5075374;28;20290;-76
2022/02/25 04:03:21;;;;;;;8.13;1.23;;;;;;;-145.69;100.00;73655.56;5075977;28;20199;-76
2022/02/25 04:05:48;;;;;;;9.80;1.50;;;;;;;-145.69;100.00;73655.56;5075610;28;20661;-77
2022/02/25 04:08:14;;;;;;;3.40;1.00;;;;;;;-145.69;100.00;73647.59;5075630;28;20231;-76
2022/02/25 04:10:41;;;;;;;6.57;1.57;;;;;;;-145.69;100.00;73639.63;5075444;28;20317;-76
2022/02/25 04:13:07;;;;;;;5.43;1.40;;;;;;;-145.69;100.00;73621.72;5075583;28;20657;-75
2022/02/25 04:15:34;;;;;;;6.90;1.50;;;;;;;-145.69;100.00;73591.84;5075691;28;20202;-76
2022/02/25 04:18:03;;;;;;;11.20;1.73;;;;;;;-145.69;100.00;73579.91;5075598;28;20204;-76
2022/02/25 04:20:31;;;;;;;5.37;1.43;;;;;;;-145.69;100.00;73587.88;5075574;28;20210;-76
2022/02/25 04:22:57;;;;;;;7.07;1.47;;;;;;;-145.69;100.00;73595.81;5075497;28;20198;-76
2022/02/25 04:25:24;;;;;;;1.37;1.27;;;;;;;-145.69;100.00;73609.75;5071072;28;20198;-76
2022/02/25 04:27:50;;;;;;;6.67;1.47;;;;;;;-145.69;100.00;73631.66;5074809;28;20210;-76
2022/02/25 04:30:16;;;;;;;7.67;2.00;;;;;;;-145.69;100.00;73637.63;5074698;28;20223;-77
2022/02/25 04:32:43;;;;;;;3.37;1.53;;;;;;;-145.69;100.00;73659.53;5075007;28;20206;-76
2022/02/25 04:35:10;;;;;;;10.77;2.13;;;;;;;-145.69;100.00;73675.47;5074672;28;20206;-76
2022/02/25 04:37:38;;;;;;;4.90;1.50;;;;;;;-145.69;100.00;73689.41;5074700;28;20198;-76
2022/02/25 04:40:06;;;;;;;5.33;1.60;;;;;;;-145.69;100.00;73707.31;5074857;28;20206;-76
2022/02/25 04:42:32;;;;;;;9.40;1.37;;;;;;;-145.69;100.00;73693.38;5074434;28;20835;-77
2022/02/25 04:44:58;;;;;;;14.97;1.80;;;;;;;-145.69;100.00;73679.44;5074848;28;20194;-77
2022/02/25 04:47:25;;;;;;;7.90;1.40;;;;;;;-145.69;100.00;73659.53;5074986;28;20202;-77
2022/02/25 04:49:52;;;;;;;6.13;1.50;;;;;;;-145.69;100.00;73633.66;5074697;28;20292;-77
2022/02/25 04:52:18;;;;;;;12.00;1.73;;;;;;;-145.69;100.00;73627.69;5074316;28;20568;-77
2022/02/25 04:54:47;;;;;;;7.60;1.60;;;;;;;-145.69;100.00;73641.63;5074479;28;20285;-76
2022/02/25 04:57:13;;;;;;;12.37;1.80;;;;;;;-145.69;100.00;73659.53;5074657;28;20550;-77
2022/02/25 04:59:40;;;;;;;9.70;1.90;;;;;;;-145.69;100.00;73673.47;5073778;28;20483;-77
2022/02/25 05:02:07;;;;;;;8.30;1.50;;;;;;;-145.69;100.00;73683.44;5074688;28;20199;-77
2022/02/25 05:04:33;;;;;;;9.60;1.63;;;;;;;-145.69;100.00;73699.34;5074439;28;20206;-77
2022/02/25 05:07:00;;;;;;;5.73;1.70;;;;;;;-145.69;100.00;73717.28;5073950;28;20609;-77
2022/02/25 05:09:26;;;;;;;4.37;1.40;;;;;;;-145.69;100.00;73743.16;5074793;28;20620;-77
2022/02/25 05:11:54;;;;;;;8.87;2.90;;;;;;;-145.69;100.00;73747.13;5074372;28;20720;-76
2022/02/25 05:22:33;;;;;;;10.33;3.83;;;;;;;-145.69;100.00;73782.97;5074362;28;20255;-75
2022/02/25 05:25:00;;;;;;;12.40;3.17;;;;;;;-145.69;100.00;73792.94;5074170;28;20195;-76
2022/02/25 05:27:28;;;;;;;13.17;3.20;;;;;;;-145.69;100.00;73800.91;5074231;28;20294;-75
2022/02/25 05:29:54;;;;;;;10.00;3.00;;;;;;;-145.69;100.00;73806.88;5074034;28;20199;-75
2022/02/25 05:32:21;;;;;;;13.27;3.40;;;;;;;-145.69;100.00;73806.88;5074254;28;20199;-75
2022/02/25 05:34:47;;;;;;;16.07;2.80;;;;;;;-145.69;100.00;73818.81;5074237;28;20207;-75
2022/02/25 05:37:14;;;;;;;17.43;2.63;;;;;;;-145.69;100.00;73818.81;5074130;28;20195;-75
2022/02/25 05:39:41;;;;;;;12.67;2.50;;;;;;;-145.69;100.00;73826.78;5073921;28;20199;-75
2022/02/25 05:42:08;;;;;;;11.03;2.97;;;;;;;-145.69;100.00;73826.78;5073920;28;20195;-75
2022/02/25 05:44:36;;;;;;;8.57;2.60;;;;;;;-145.69;100.00;73810.84;5073727;28;20202;-75
2022/02/25 05:47:02;;;;;;;12.40;2.87;;;;;;;-145.69;100.00;73828.78;5073578;28;20206;-76
2022/02/25 05:49:29;;;;;;;13.03;2.60;;;;;;;-145.69;100.00;73822.81;5073772;28;20294;-76
2022/02/25 05:51:56;;;;;;;7.30;2.17;;;;;;;-145.69;100.00;73830.75;5073608;28;20710;-75
2022/02/25 05:54:22;;;;;;;10.53;2.20;;;;;;;-145.69;100.00;73834.75;5073705;28;20207;-75
2022/02/25 05:56:49;;;;;;;6.43;2.50;;;;;;;-145.69;100.00;73804.88;5073265;28;20202;-75
2022/02/25 05:59:15;;;;;;;5.47;2.13;;;;;;;-145.69;100.00;73798.91;5073811;28;20210;-76
2022/02/25 06:01:43;;;;;;;6.90;1.87;;;;;;;-145.69;100.00;73808.88;5073585;28;20199;-76
2022/02/25 06:04:10;;;;;;;7.40;1.80;;;;;;;-145.69;100.00;73820.81;5073156;28;20241;-76
2022/02/25 06:06:36;;;;;;;6.63;1.70;;;;;;;-145.69;100.00;73834.75;5073400;28;20676;-76
2022/02/25 06:09:03;;;;;;;4.97;1.77;;;;;;;-145.69;100.00;73830.75;5072582;28;20230;-76
2022/02/25 06:11:30;;;;;;;12.10;2.50;;;;;;;-145.69;100.00;73824.78;5072700;28;20465;-75
2022/02/25 06:13:56;;;;;;;10.13;2.40;;;;;;;-145.69;100.00;73814.84;5073562;28;20201;-76
2022/02/25 06:16:22;;;;;;;11.50;1.57;;;;;;;-145.69;100.00;73826.78;5073160;28;20260;-76
2022/02/25 06:18:50;;;;;;;4.27;1.60;;;;;;;-145.69;100.00;73832.75;5073633;28;20198;-76
2022/02/25 06:21:18;;;;;;;6.90;1.97;;;;;;;-145.69;100.00;73842.72;5073187;28;20201;-77
2022/02/25 06:23:44;;;;;;;9.47;1.60;;;;;;;-145.69;100.00;73854.66;5073118;28;20237;-75
2022/02/25 06:26:11;;;;;;;5.97;1.70;;;;;;;-145.69;100.00;73858.63;5071996;28;20195;-76
2022/02/25 06:28:37;;;;;;;4.03;1.47;;;;;;;-145.69;100.00;73834.75;5073254;28;20198;-75
2022/02/25 06:31:04;;;;;;;6.30;1.80;;;;;;;-145.69;100.00;73832.75;5073052;28;20230;-75
2022/02/25 06:33:30;;;;;;;10.00;1.80;;;;;;;-145.69;100.00;73812.84;5072953;28;20737;-75
2022/02/25 06:35:58;;;;;;;2.83;1.40;;;;;;;-145.69;100.00;73798.91;5073030;28;20203;-75
2022/02/25 06:38:25;;;;;;;7.03;1.37;;;;;;;-145.69;100.00;73818.81;5072795;28;20191;-75
2022/02/25 06:41:29;;;;;;;7.07;1.67;;;;;;;-145.69;100.00;73824.78;5072892;28;20202;-76
2022/02/25 06:44:17;;;;;;;9.90;2.00;;;;;;;-145.69;100.00;73810.84;5072714;28;20678;-76
2022/02/25 06:46:43;;;;;;;7.27;1.80;;;;;;;-145.69;100.00;73818.81;5072717;28;20234;-76
2022/02/25 06:49:11;;;;;;;13.13;1.80;;;;;;;-145.69;100.00;73798.91;5073012;28;20237;-76
2022/02/25 06:51:39;;;;;;;10.90;1.97;;;;;;;-145.69;100.00;73786.97;5072811;28;20324;-75
2022/02/25 06:54:05;;;;;;;9.93;1.67;;;;;;;-145.69;100.00;73802.88;5072823;28;20561;-76
2022/02/25 06:56:32;;;;;;;7.17;1.60;;;;;;;-145.69;100.00;73798.91;5072805;28;20198;-76
2022/02/25 06:58:58;;;;;;;8.67;1.70;;;;;;;-145.69;100.00;73810.84;5072648;28;20203;-77
2022/02/25 07:01:25;;;;;;;5.40;1.70;;;;;;;-145.69;100.00;73798.91;5072673;28;20202;-77
2022/02/25 07:03:51;;;;;;;7.90;2.03;;;;;;;-145.69;100.00;73802.88;5072679;28;20203;-76
2022/02/25 07:06:23;;;;;;;9.63;2.20;;;;;;;-145.69;100.00;73798.91;5072819;28;20566;-77
2022/02/25 07:08:52;;;;;;;7.80;2.20;;;;;;;-145.69;100.00;73798.91;5072513;28;20234;-75
2022/02/25 07:11:19;;;;;;;10.80;2.17;;;;;;;-145.69;100.00;73800.91;5072610;28;20262;-76
2022/02/25 07:13:45;;;;;;;6.57;2.20;;;;;;;-145.69;100.00;73808.88;5072546;28;20253;-76
2022/02/25 07:16:12;;;;;;;12.70;2.60;;;;;;;-145.69;100.00;73786.97;5072560;28;20210;-76
2022/02/25 07:18:38;;;;;;;8.53;2.43;;;;;;;-145.69;100.00;73777.00;5072718;28;20256;-76
2022/02/25 07:21:04;;;;;;;14.80;3.00;;;;;;;-145.69;100.00;73781.00;5075026;28;20206;-77
2022/02/25 07:23:31;;;;;;;11.50;3.30;;;;;;;-145.69;100.00;73779.00;5076682;28;20538;-77
2022/02/25 07:25:59;;;;;;;13.73;3.33;;;;;;;-145.69;100.00;73765.06;5075800;28;20843;-76
2022/02/25 07:28:25;;;;;;;16.97;2.67;;;;;;;-145.69;100.00;73771.03;5087968;28;20194;-77
2022/02/25 07:30:52;;;;;;;10.47;2.87;;;;;;;-145.69;100.00;73763.06;5096677;28;20277;-77
2022/02/25 07:33:19;;;;;;;15.40;2.40;;;;;;;-145.69;100.00;73755.09;5096803;28;20194;-77
2022/02/25 07:35:46;;;;;;;10.80;2.43;;;;;;;-145.69;100.00;73747.13;5096930;28;20205;-77
2022/02/25 07:38:12;;;;;;;10.47;2.77;;;;;;;-145.69;100.00;73753.13;5096639;28;20202;-77
2022/02/25 07:40:39;;;;;;;8.80;3.03;;;;;;;-145.69;100.00;73747.13;5096749;28;20213;-76
2022/02/25 07:43:07;;;;;;;12.20;3.27;;;;;;;-145.69;100.00;73739.19;5094933;28;20194;-77
2022/02/25 07:45:34;;;;;;;12.80;3.60;;;;;;;-145.69;100.00;73745.16;5096483;28;20201;-78
2022/02/25 07:48:01;;;;;;;14.63;4.47;;;;;;;-145.69;100.00;73735.19;5096408;28;20197;-77
2022/02/25 07:50:28;;;;;;;11.33;3.93;;;;;;;-145.69;100.00;73745.16;5096656;28;20259;-77
2022/02/25 07:52:54;;;;;;;12.10;4.27;;;;;;;-145.69;100.00;73739.19;5092841;28;20199;-77
2022/02/25 07:55:21;;;;;;;10.57;2.53;;;;;;;-145.69;100.00;73733.19;5076270;28;20197;-76
2022/02/25 07:57:47;;;;;;;15.60;2.23;;;;;;;-145.69;100.00;73721.25;5084929;28;20194;-76
2022/02/25 08:00:17;;;;;;;13.07;2.50;;;;;;;-145.69;100.00;73691.38;5093903;28;20831;-76
2022/02/25 08:02:44;;;;;;;7.10;1.70;;;;;;;-145.69;100.00;73679.44;5090403;28;20741;-76
2022/02/25 08:05:10;;;;;;;6.90;1.23;;;;;;;-145.69;100.00;73667.50;5079282;28;20255;-76
2022/02/25 08:07:37;;;;;;;12.90;1.83;;;;;;;-145.69;100.00;73651.56;5084989;28;20715;-75
2022/02/25 08:10:04;;;;;;;8.07;2.00;;;;;;;-145.69;100.00;73619.72;5092702;28;20244;-76
2022/02/25 08:12:31;;;;;;;7.40;1.77;;;;;;;-145.69;100.00;73599.81;5090649;28;20218;-76
2022/02/25 08:14:57;;;;;;;11.37;1.87;;;;;;;-145.69;100.00;73589.84;5085945;28;20335;-76
2022/02/25 08:17:25;;;;;;;10.63;2.20;;;;;;;-145.69;100.00;73569.94;5096302;28;20202;-76
2022/02/25 08:19:52;;;;;;;9.33;1.73;;;;;;;-145.69;100.00;73556.00;5096208;28;20225;-76
2022/02/25 08:22:20;;;;;;;6.30;1.50;;;;;;;-145.69;100.00;73528.13;5096232;28;20202;-76
2022/02/25 08:24:47;;;;;;;17.40;2.40;;;;;;;-145.69;100.00;73524.16;5096019;28;20620;-77
2022/02/25 08:27:13;;;;;;;8.53;2.50;;;;;;;-145.69;100.00;73504.25;5090865;28;20198;-77
2022/02/25 08:29:40;;;;;;;18.47;5.10;;;;;;;-145.69;100.00;73468.41;5091793;28;20198;-77
2022/02/25 08:32:07;;;;;;;8.13;2.30;;;;;;;-145.69;100.00;73456.47;5095535;28;20642;-77
2022/02/25 08:34:35;;;;;;;26.30;5.73;;;;;;;-145.69;100.00;73436.56;5096245;28;20280;-76
2022/02/25 08:37:01;;;;;;;21.63;4.10;;;;;;;-145.69;100.00;73440.53;5096120;28;20557;-76
2022/02/25 08:39:28;;;;;;;19.50;5.20;;;;;;;-145.69;100.00;73438.53;5095905;28;20209;-77
2022/02/25 08:41:55;;;;;;;13.90;2.37;;;;;;;-145.69;100.00;73442.53;5096448;28;20272;-76
2022/02/25 08:44:22;;;;;;;6.43;2.03;;;;;;;-145.69;99.49;73426.59;5095573;28;20691;-75
2022/02/25 08:46:48;;;;;;;11.50;2.10;;;;;;;-145.69;99.20;73420.63;5096121;28;20202;-77
2022/02/25 08:49:15;;;;;;;7.20;1.40;;;;;;;-145.69;96.67;73412.66;5095879;28;20250;-76
2022/02/25 08:51:43;;;;;;;5.50;1.40;;;;;;;-145.69;97.78;73402.72;5095225;28;20598;-76
2022/02/25 08:54:10;;;;;;;11.07;1.80;;;;;;;-145.69;99.66;73406.69;5095725;28;20209;-76
2022/02/25 08:56:37;;;;;;;7.20;2.03;;;;;;;-145.69;94.65;73414.66;5095380;28;20202;-76
2022/02/25 08:59:04;;;;;;;9.40;1.43;;;;;;;-145.69;95.50;73426.59;5075134;28;20692;-76
2022/02/25 09:01:32;;;;;;;7.10;1.30;;;;;;;-145.69;97.31;73436.56;5076210;28;20206;-77
2022/02/25 09:04:00;;;;;;;5.17;1.50;;;;;;;-145.69;99.78;73442.53;5079941;28;20245;-76
2022/02/25 09:06:27;;;;;;;2.10;1.07;;;;;;;-145.69;100.00;73422.63;5095320;28;20289;-76
2022/02/25 09:08:55;;;;;;;9.97;1.50;;;;;;;-145.69;95.03;73412.66;5093369;28;20592;-76
2022/02/25 09:11:22;;;;;;;8.03;1.20;;;;;;;-145.69;97.15;73406.69;5093544;28;20569;-77
2022/02/25 09:13:49;;;;;;;7.63;1.10;;;;;;;-145.69;97.73;73394.75;5095420;28;20194;-76
2022/02/25 09:16:15;;;;;;;10.50;1.50;;;;;;;-145.69;97.49;73382.81;5080291;28;20657;-78
2022/02/25 09:18:42;;;;;;;3.80;1.00;;;;;;;-145.69;98.62;73376.81;5074968;28;20592;-75
2022/02/25 09:21:08;;;;;;;10.17;1.53;;;;;;;-145.69;94.76;73366.88;5076161;28;20240;-77
2022/02/25 09:23:35;;;;;;;5.97;1.33;;;;;;;-145.69;94.54;73368.88;5075140;28;20612;-77
2022/02/25 09:26:02;;;;;;;6.60;1.20;;;;;;;-145.69;92.32;73352.94;5078363;28;20652;-77
2022/02/25 09:28:29;;;;;;;6.73;1.73;;;;;;;-145.69;96.07;73352.94;5083399;28;20199;-77
2022/02/25 09:30:56;;;;;;;6.70;1.40;;;;;;;-145.69;90.87;73346.97;5074767;28;20256;-77
2022/02/25 09:33:22;;;;;;;5.27;1.60;;;;;;;-145.69;91.85;73344.97;5074502;28;20257;-77
2022/02/25 09:35:51;;;;;;;16.17;1.77;;;;;;;-145.69;88.14;73339.00;5074607;28;20539;-78
2022/02/25 09:38:17;;;;;;;9.90;1.23;;;;;;;-145.69;93.48;73333.03;5074913;28;20249;-78
2022/02/25 09:40:44;;;;;;;7.83;1.27;;;;;;;-145.69;89.93;73319.09;5074432;28;20680;-78
2022/02/25 09:43:12;;;;;;;7.17;1.37;;;;;;;-145.69;90.93;73313.13;5073559;28;20339;-77
2022/02/25 09:45:38;;;;;;;9.13;1.50;;;;;;;-145.69;89.95;73311.13;5074383;28;20608;-78
2022/02/25 09:48:07;;;;;;;4.17;1.40;;;;;;;-145.69;88.33;73313.13;5081592;28;20237;-76
2022/02/25 09:50:33;;;;;;;5.80;1.40;;;;;;;-145.69;88.17;73301.19;5078984;28;20668;-75
2022/02/25 09:53:00;;;;;;;5.37;1.53;;;;;;;-145.69;84.23;73293.22;5071536;28;20223;-75
2022/02/25 09:55:29;;;;;;;5.57;1.10;;;;;;;-145.69;87.29;73299.19;5073657;28;20195;-76
2022/02/25 09:57:59;;;;;;;8.63;2.00;;;;;;;-145.69;87.41;73291.22;5073392;28;20238;-75
2022/02/25 10:00:28;;;;;;;8.37;1.60;;;;;;;-145.69;83.87;73277.28;5074063;28;20206;-76
2022/02/25 10:02:56;;;;;;;4.07;1.13;;;;;;;-145.69;85.92;73269.31;5074069;28;20633;-76
2022/02/25 10:05:25;;;;;;;6.77;1.30;;;;;;;-145.69;83.82;73257.38;5073772;28;20199;-76
2022/02/25 10:07:53;;;;;;;7.43;1.30;;;;;;;-145.69;78.37;73249.41;5074003;28;20234;-78
2022/02/25 10:10:26;;;;;;;4.57;1.33;;;;;;;-145.69;73.55;73257.38;5073883;28;20654;-78
2022/02/25 10:12:58;;;;;;;4.53;1.30;;;;;;;-145.69;73.97;73257.38;5073941;28;20230;-79
2022/02/25 10:15:30;;;;;;;5.57;1.20;;;;;;;-145.69;75.80;73243.44;5073810;28;20199;-79
2022/02/25 10:18:01;;;;;;;7.13;0.97;;;;;;;-145.69;72.15;73253.41;5074571;28;20186;-78
2022/02/25 10:20:28;;;;;;;3.43;1.13;;;;;;;-145.69;72.96;73239.47;5074190;28;20213;-78
2022/02/25 10:22:54;;;;;;;6.70;1.23;;;;;;;-145.69;76.43;73227.50;5072952;28;20203;-78
2022/02/25 10:25:22;;;;;;;3.63;0.97;;;;;;;-145.69;71.89;73209.59;5073623;28;20653;-80
2022/02/25 10:27:51;;;;;;;2.63;0.97;;;;;;;-145.69;69.53;73221.53;5073525;28;20305;-80
2022/02/25 10:30:20;;;;;;;8.13;1.37;;;;;;;-145.69;75.82;73167.78;5073687;28;20195;-80
2022/02/25 10:32:49;;;;;;;10.63;1.37;;;;;;;-145.69;75.31;73135.94;5073684;28;20256;-80
2022/02/25 10:35:23;;;;;;;5.00;1.03;;;;;;;-145.69;68.57;73135.94;5073694;28;20350;-79
2022/02/25 10:37:59;;;;;;;5.00;1.10;;;;;;;-145.69;74.08;73104.09;5073245;28;20199;-79
2022/02/25 10:40:26;;;;;;;5.20;1.20;;;;;;;-145.69;73.16;73090.16;5073148;28;20569;-79
2022/02/25 10:42:53;;;;;;;6.83;1.20;;;;;;;-145.69;71.72;73050.34;5072124;28;20249;-78
2022/02/25 10:45:30;;;;;;;2.37;1.00;;;;;;;-145.69;69.52;73086.19;5072838;28;20218;-78
2022/02/25 10:48:01;;;;;;;11.97;1.40;;;;;;;-145.69;70.70;73104.09;5073884;28;20211;-79
2022/02/25 10:50:28;;;;;;;9.67;1.20;;;;;;;-145.69;70.50;73126.00;5070734;28;20562;-78
2022/02/25 10:52:56;;;;;;;5.33;1.10;;;;;;;-145.69;70.89;73129.97;5073006;28;20230;-77
2022/02/25 10:55:24;;;;;;;5.97;0.93;;;;;;;-145.69;66.02;73155.84;5072751;28;20198;-79
2022/02/25 10:57:52;;;;;;;6.87;1.40;;;;;;;-145.69;68.74;73171.78;5073286;28;20202;-78
2022/02/25 11:00:20;;;;;;;7.53;1.40;;;;;;;-145.69;69.98;73195.66;5073192;28;20207;-77
2022/02/25 11:02:48;;;;;;;8.53;1.50;;;;;;;-145.69;72.04;73193.66;5072998;28;20614;-80
2022/02/25 11:05:18;;;;;;;8.57;1.40;;;;;;;-145.69;74.04;73193.66;5072816;28;20923;-80
2022/02/25 11:07:46;;;;;;;4.30;1.03;;;;;;;-145.69;73.57;73193.66;5073035;28;20234;-79
2022/02/25 11:10:15;;;;;;;9.50;1.47;;;;;;;-145.69;72.41;73203.63;5072921;28;20554;-79
2022/02/25 11:12:43;;;;;;;7.50;1.53;;;;;;;-145.69;74.51;73193.66;5072863;28;20234;-80
2022/02/25 11:15:12;;;;;;;7.37;1.50;;;;;;;-145.69;75.60;73209.59;5072933;28;20199;-80
2022/02/25 11:17:41;;;;;;;6.20;1.40;;;;;;;-145.69;74.13;73217.56;5081013;28;20190;-80
2022/02/25 11:20:09;;;;;;;10.93;1.43;;;;;;;-145.69;76.10;73193.66;5093427;28;20220;-79